Time;durP1;ratioP1;P1;durP2;ratioP2;P2;SDS_P1;SDS_P2;PMS_P1;PMS_P2;Temp;Humidity;BMP_temperature;BMP_pressure;BME280_temperature;BME280_humidity;BME280_pressure;Samples;Min_cycle;Max_cycle;Signal;HPM_P1;HPM_P2
2021/10/27 00:00:10;;;;;;;15.02;9.20;;;5.50;99.90;;;;;;5054401;28;20025;-66
2021/10/27 00:02:36;;;;;;;12.13;8.70;;;5.60;99.90;;;;;;5054113;28;20021;-65
2021/10/27 00:05:03;;;;;;;15.85;8.85;;;5.60;99.90;;;;;;5053392;28;20352;-65
2021/10/27 00:07:29;;;;;;;16.42;10.60;;;5.50;99.90;;;;;;5054395;28;20029;-65
2021/10/27 00:09:55;;;;;;;16.33;10.32;;;5.50;99.90;;;;;;5054001;28;20098;-65
2021/10/27 00:12:21;;;;;;;14.98;9.90;;;5.50;99.90;;;;;;5053723;28;20025;-65
2021/10/27 00:14:47;;;;;;;16.27;9.25;;;5.40;99.90;;;;;;5052753;28;20039;-66
2021/10/27 00:17:13;;;;;;;14.30;9.50;;;5.40;99.90;;;;;;5053442;28;20025;-66
2021/10/27 00:19:38;;;;;;;15.65;9.40;;;5.50;99.90;;;;;;5053859;28;20163;-64
2021/10/27 00:22:04;;;;;;;14.05;9.40;;;5.60;99.90;;;;;;5053850;28;20048;-65
2021/10/27 00:24:30;;;;;;;14.27;7.90;;;5.60;99.90;;;;;;5053012;28;20033;-67
2021/10/27 00:26:55;;;;;;;12.88;7.88;;;5.50;99.90;;;;;;5053338;28;20114;-65
2021/10/27 00:29:21;;;;;;;14.60;8.55;;;5.60;99.90;;;;;;5053847;28;20033;-66
2021/10/27 00:31:46;;;;;;;13.77;7.70;;;5.60;99.90;;;;;;5053479;28;20064;-65
2021/10/27 00:34:12;;;;;;;13.07;7.88;;;5.70;99.90;;;;;;5053796;28;20056;-65
2021/10/27 00:36:38;;;;;;;14.23;8.18;;;5.70;99.90;;;;;;5052747;28;20071;-65
2021/10/27 00:39:04;;;;;;;13.00;8.02;;;5.80;99.90;;;;;;5053503;28;20437;-65
2021/10/27 00:41:30;;;;;;;10.50;7.15;;;5.70;99.90;;;;;;5053480;28;20055;-66
2021/10/27 00:43:56;;;;;;;14.77;8.63;;;5.70;99.90;;;;;;5053288;28;20017;-66
2021/10/27 00:46:24;;;;;;;18.98;9.82;;;5.80;99.90;;;;;;5052421;28;20079;-65
2021/10/27 00:48:51;;;;;;;18.33;9.07;;;5.80;99.90;;;;;;5053322;28;20017;-65
2021/10/27 00:51:18;;;;;;;13.68;9.27;;;5.90;99.90;;;;;;5053390;28;20387;-66
2021/10/27 00:53:44;;;;;;;15.15;9.98;;;5.70;99.90;;;;;;5053299;28;20013;-64
2021/10/27 00:56:11;;;;;;;18.58;11.63;;;5.80;99.90;;;;;;5052611;28;20028;-65
2021/10/27 00:58:36;;;;;;;18.92;10.70;;;5.80;99.90;;;;;;5052911;28;20527;-66
2021/10/27 01:01:03;;;;;;;23.08;10.88;;;5.70;99.90;;;;;;5052851;28;20021;-65
2021/10/27 01:03:29;;;;;;;17.58;10.10;;;5.70;99.90;;;;;;5053100;28;20446;-66
2021/10/27 01:05:55;;;;;;;23.33;11.90;;;5.70;99.90;;;;;;5052398;28;20100;-66
2021/10/27 01:08:21;;;;;;;20.70;11.93;;;5.80;99.90;;;;;;5051488;28;20078;-65
2021/10/27 01:10:47;;;;;;;25.88;12.27;;;5.70;99.90;;;;;;5053046;28;20055;-66
2021/10/27 01:13:13;;;;;;;25.67;11.70;;;5.80;99.90;;;;;;5052709;28;20458;-65
2021/10/27 01:15:40;;;;;;;20.45;11.93;;;5.80;99.90;;;;;;5051911;28;20025;-64
2021/10/27 01:18:06;;;;;;;19.58;11.65;;;5.60;99.90;;;;;;5052437;28;20025;-65
2021/10/27 01:20:32;;;;;;;21.70;12.40;;;5.60;99.90;;;;;;5052382;28;20449;-65
2021/10/27 01:22:58;;;;;;;41.97;13.10;;;5.60;99.90;;;;;;5052248;28;20025;-66
2021/10/27 01:25:23;;;;;;;21.05;11.50;;;5.70;99.90;;;;;;5051738;28;20044;-66
2021/10/27 01:27:49;;;;;;;30.38;12.45;;;5.70;99.90;;;;;;5052572;28;20101;-65
2021/10/27 01:30:18;;;;;;;23.02;11.77;;;5.60;99.90;;;;;;5052269;28;20021;-64
2021/10/27 01:32:44;;;;;;;23.27;11.75;;;5.60;99.90;;;;;;5052409;28;20021;-66
2021/10/27 01:35:11;;;;;;;18.67;12.05;;;5.60;99.90;;;;;;5051581;28;20028;-64
2021/10/27 01:37:39;;;;;;;17.88;11.73;;;5.60;99.90;;;;;;5051691;28;20025;-65
2021/10/27 01:40:07;;;;;;;16.88;11.93;;;5.50;99.90;;;;;;5051874;28;20033;-64
2021/10/27 01:42:33;;;;;;;26.50;12.00;;;5.50;99.90;;;;;;5034031;28;20498;-66
2021/10/27 01:44:59;;;;;;;25.23;10.68;;;5.40;99.90;;;;;;5051224;28;20524;-64
2021/10/27 01:47:25;;;;;;;18.25;11.13;;;5.30;99.90;;;;;;5051918;28;20037;-65
2021/10/27 01:49:51;;;;;;;15.70;10.85;;;5.40;99.90;;;;;;5051889;28;20083;-64
2021/10/27 01:52:17;;;;;;;18.77;11.73;;;5.40;99.90;;;;;;5052067;28;20025;-66
2021/10/27 01:54:43;;;;;;;16.95;11.23;;;5.30;99.90;;;;;;5051133;28;20036;-66
2021/10/27 01:57:11;;;;;;;18.65;10.95;;;5.30;99.90;;;;;;5051657;28;20029;-63
2021/10/27 01:59:37;;;;;;;14.65;10.48;;;5.30;99.90;;;;;;5051709;28;20070;-64
2021/10/27 02:02:03;;;;;;;16.70;11.00;;;5.30;99.90;;;;;;5051988;28;20033;-65
2021/10/27 02:04:29;;;;;;;18.38;12.13;;;5.30;99.90;;;;;;5051585;28;20025;-66
2021/10/27 02:06:54;;;;;;;24.70;12.20;;;5.20;99.90;;;;;;5051865;28;20383;-65
2021/10/27 02:09:20;;;;;;;36.13;11.40;;;5.20;99.90;;;;;;5051412;28;20032;-63
2021/10/27 02:11:46;;;;;;;17.38;11.68;;;5.10;99.90;;;;;;5033652;28;20029;-63
2021/10/27 02:14:11;;;;;;;18.85;11.77;;;5.00;99.90;;;;;;5034010;28;20033;-64
2021/10/27 02:16:37;;;;;;;15.18;11.55;;;4.90;99.90;;;;;;5050835;28;20107;-64
2021/10/27 02:19:06;;;;;;;30.95;11.43;;;4.80;99.90;;;;;;5051359;28;20487;-64
2021/10/27 02:21:32;;;;;;;16.75;11.00;;;4.80;99.90;;;;;;5051558;28;20544;-64
2021/10/27 02:23:58;;;;;;;20.00;12.13;;;4.70;99.90;;;;;;5051455;28;20032;-64
2021/10/27 02:26:24;;;;;;;21.80;11.35;;;4.60;99.90;;;;;;5050866;28;20244;-65
2021/10/27 02:28:51;;;;;;;16.25;11.00;;;4.70;99.90;;;;;;5054502;28;20032;-64
2021/10/27 02:31:17;;;;;;;97.00;12.90;;;4.60;99.90;;;;;;5054764;28;20364;-65
2021/10/27 02:33:42;;;;;;;19.48;11.07;;;4.60;99.90;;;;;;5054967;28;20020;-65
2021/10/27 02:36:08;;;;;;;39.83;13.07;;;4.60;99.90;;;;;;5053698;28;20025;-65
2021/10/27 02:38:34;;;;;;;46.80;13.38;;;4.60;99.90;;;;;;5053391;28;20025;-64
2021/10/27 02:41:00;;;;;;;21.58;12.07;;;4.70;99.90;;;;;;5052867;28;20017;-62
2021/10/27 02:43:26;;;;;;;31.67;13.20;;;4.60;99.90;;;;;;5051293;28;20025;-66
2021/10/27 02:45:51;;;;;;;34.58;12.82;;;4.60;99.90;;;;;;5032499;28;20029;-65
2021/10/27 02:48:17;;;;;;;34.70;12.57;;;4.70;99.90;;;;;;5051578;28;20025;-65
2021/10/27 02:50:43;;;;;;;15.50;11.18;;;4.80;99.90;;;;;;5051254;28;20487;-65
2021/10/27 02:53:09;;;;;;;16.80;10.98;;;4.80;99.90;;;;;;5051237;28;20494;-65
2021/10/27 02:55:35;;;;;;;25.08;11.52;;;4.80;99.90;;;;;;5050544;28;20025;-66
2021/10/27 02:58:00;;;;;;;24.02;11.50;;;4.80;99.90;;;;;;5050988;28;20091;-67
2021/10/27 03:00:27;;;;;;;15.55;11.55;;;4.90;99.90;;;;;;5051384;28;20542;-66
2021/10/27 03:02:54;;;;;;;22.75;10.35;;;4.80;99.90;;;;;;5051205;28;20101;-65
2021/10/27 03:05:22;;;;;;;9.52;8.38;;;4.80;99.90;;;;;;5060142;28;20056;-65
2021/10/27 03:07:49;;;;;;;19.90;12.80;;;4.80;99.90;;;;;;5062222;28;20048;-65
2021/10/27 03:10:15;;;;;;;20.40;12.32;;;4.90;99.90;;;;;;5062092;28;20049;-66
2021/10/27 03:12:41;;;;;;;29.90;13.27;;;4.90;99.90;;;;;;5062205;28;20079;-65
2021/10/27 03:15:07;;;;;;;19.58;12.68;;;4.90;99.90;;;;;;5060519;28;20032;-67
2021/10/27 03:17:33;;;;;;;14.75;11.63;;;5.00;99.90;;;;;;5054480;28;20033;-67
2021/10/27 03:19:59;;;;;;;17.58;13.00;;;4.90;99.90;;;;;;5051028;28;20032;-67
2021/10/27 03:22:24;;;;;;;17.23;12.50;;;4.90;99.90;;;;;;5050703;28;20383;-67
2021/10/27 03:24:50;;;;;;;14.02;10.88;;;4.90;99.90;;;;;;5050679;28;20070;-66
2021/10/27 03:27:16;;;;;;;16.55;11.18;;;5.00;99.90;;;;;;5050708;28;20079;-67
2021/10/27 03:29:42;;;;;;;16.20;10.85;;;4.90;99.90;;;;;;5049866;28;20021;-66
2021/10/27 03:32:09;;;;;;;16.55;11.15;;;4.90;99.90;;;;;;5054079;28;20032;-66
2021/10/27 03:34:35;;;;;;;19.33;10.75;;;4.90;99.90;;;;;;5054192;28;20636;-66
2021/10/27 03:37:02;;;;;;;12.35;10.25;;;4.80;99.90;;;;;;5054550;28;20029;-66
2021/10/27 03:39:28;;;;;;;12.40;10.15;;;4.80;99.90;;;;;;5052693;28;20025;-66
2021/10/27 03:41:53;;;;;;;15.40;9.35;;;4.70;99.90;;;;;;5054143;28;20036;-66
2021/10/27 03:44:19;;;;;;;12.13;9.63;;;4.70;99.90;;;;;;5053997;28;20074;-66
2021/10/27 03:46:45;;;;;;;30.30;10.90;;;4.70;99.90;;;;;;5053951;28;20456;-66
2021/10/27 03:49:11;;;;;;;9.85;8.85;;;4.80;99.90;;;;;;5054361;28;20036;-67
2021/10/27 03:51:36;;;;;;;17.10;9.98;;;4.70;99.90;;;;;;5054378;28;20414;-66
2021/10/27 03:54:02;;;;;;;11.02;9.52;;;4.70;99.90;;;;;;5054134;28;20029;-66
2021/10/27 03:56:28;;;;;;;16.88;9.88;;;4.70;99.90;;;;;;5053685;28;20677;-66
2021/10/27 03:58:54;;;;;;;13.50;10.65;;;4.70;99.90;;;;;;5054187;28;20104;-67
2021/10/27 04:01:20;;;;;;;15.88;11.05;;;4.70;99.90;;;;;;5054021;28;20063;-67
2021/10/27 04:03:46;;;;;;;13.38;10.48;;;4.80;99.90;;;;;;5054557;28;20430;-67
2021/10/27 04:06:12;;;;;;;16.02;10.88;;;5.00;99.90;;;;;;5053127;28;20029;-66
2021/10/27 04:08:38;;;;;;;13.65;10.48;;;4.80;99.90;;;;;;5053703;28;20060;-67
2021/10/27 04:11:03;;;;;;;27.88;12.30;;;4.70;99.90;;;;;;5053946;28;20092;-66
2021/10/27 04:13:29;;;;;;;15.70;11.88;;;4.90;99.90;;;;;;5053716;28;20037;-65
2021/10/27 04:15:55;;;;;;;18.95;11.43;;;4.80;99.90;;;;;;5053241;28;20024;-67
2021/10/27 04:18:20;;;;;;;13.02;10.77;;;4.90;99.90;;;;;;5036261;28;20086;-65
2021/10/27 04:20:46;;;;;;;20.92;10.57;;;4.90;99.90;;;;;;5054332;28;20403;-66
2021/10/27 04:23:12;;;;;;;14.55;11.07;;;4.90;99.90;;;;;;5053580;28;20040;-67
2021/10/27 04:25:38;;;;;;;31.25;10.65;;;4.90;99.90;;;;;;5053392;28;20025;-65
2021/10/27 04:28:05;;;;;;;28.13;10.68;;;4.90;99.90;;;;;;5054435;28;20021;-66
2021/10/27 04:30:31;;;;;;;12.70;10.15;;;4.80;99.90;;;;;;5053924;28;20025;-66
2021/10/27 04:32:56;;;;;;;29.55;10.90;;;4.90;99.90;;;;;;5053901;28;20502;-68
2021/10/27 04:35:24;;;;;;;22.88;11.43;;;4.80;99.90;;;;;;5052749;28;20032;-65
2021/10/27 04:37:50;;;;;;;31.50;11.07;;;4.80;99.90;;;;;;5053483;28;20040;-66
2021/10/27 04:40:18;;;;;;;47.03;11.93;;;4.80;99.90;;;;;;5038253;28;20029;-68
2021/10/27 04:42:44;;;;;;;13.93;10.90;;;4.80;99.90;;;;;;5026642;28;20276;-70
2021/10/27 04:45:11;;;;;;;17.17;10.93;;;4.80;99.90;;;;;;5032698;28;20553;-69
2021/10/27 04:47:38;;;;;;;16.13;10.75;;;4.80;99.90;;;;;;5033203;28;20030;-69
2021/10/27 04:50:08;;;;;;;34.75;12.57;;;4.80;99.90;;;;;;5033395;28;20479;-70
2021/10/27 04:52:33;;;;;;;14.85;10.93;;;4.70;99.90;;;;;;5032896;28;20026;-70
2021/10/27 04:54:59;;;;;;;17.55;10.25;;;4.80;99.90;;;;;;5032624;28;20483;-69
2021/10/27 04:57:25;;;;;;;19.40;10.82;;;4.70;99.90;;;;;;5033114;28;20101;-69
2021/10/27 04:59:51;;;;;;;15.95;10.63;;;4.80;99.90;;;;;;5045575;28;20048;-68
2021/10/27 05:02:17;;;;;;;13.07;10.23;;;4.80;99.90;;;;;;5052576;28;20029;-70
2021/10/27 05:04:44;;;;;;;23.75;10.23;;;4.80;99.90;;;;;;5052168;28;20021;-71
2021/10/27 05:07:12;;;;;;;13.38;9.77;;;4.70;99.90;;;;;;5044193;28;20025;-70
2021/10/27 05:09:38;;;;;;;14.15;9.82;;;4.70;99.90;;;;;;5052908;28;20017;-70
2021/10/27 05:12:04;;;;;;;11.98;9.05;;;4.60;99.90;;;;;;5052018;28;20021;-71
2021/10/27 05:14:37;;;;;;;13.43;10.02;;;4.60;99.90;;;;;;5052182;28;20021;-70
2021/10/27 05:17:10;;;;;;;16.48;9.35;;;4.70;99.90;;;;;;5052625;28;20029;-70
2021/10/27 05:19:37;;;;;;;17.95;10.30;;;4.70;99.90;;;;;;5052562;28;20094;-70
2021/10/27 05:22:04;;;;;;;40.33;10.77;;;4.80;99.90;;;;;;5034411;28;20110;-71
2021/10/27 05:24:30;;;;;;;35.85;9.63;;;4.80;99.90;;;;;;5052047;28;20018;-78
2021/10/27 05:26:56;;;;;;;29.73;8.55;;;4.80;99.90;;;;;;5053725;28;20021;-79
2021/10/27 05:29:22;;;;;;;18.55;9.73;;;4.70;99.90;;;;;;5055869;28;20025;-76
2021/10/27 05:31:48;;;;;;;44.22;10.45;;;5.00;99.90;;;;;;5036388;28;20021;-73
2021/10/27 05:34:14;;;;;;;13.02;9.77;;;4.90;99.90;;;;;;5032496;28;20079;-72
2021/10/27 05:36:41;;;;;;;44.47;10.32;;;4.60;99.90;;;;;;5046912;28;20058;-71
2021/10/27 05:39:07;;;;;;;14.20;8.52;;;4.60;99.90;;;;;;5052493;28;20021;-71
2021/10/27 05:41:33;;;;;;;13.40;9.95;;;4.50;99.90;;;;;;5052102;28;20059;-72
2021/10/27 05:43:59;;;;;;;15.43;9.13;;;4.50;99.90;;;;;;5052072;28;20375;-69
2021/10/27 05:46:25;;;;;;;23.80;9.50;;;4.50;99.90;;;;;;5033125;28;20029;-74
2021/10/27 05:49:02;;;;;;;20.75;9.15;;;4.50;99.90;;;;;;5052013;28;20025;-72
2021/10/27 05:51:52;;;;;;;40.90;10.25;;;4.50;99.90;;;;;;5051811;28;20032;-72
2021/10/27 05:57:03;;;;;;;73.07;10.10;;;4.50;99.90;;;;;;5051571;28;20035;-72
2021/10/27 05:59:29;;;;;;;61.13;10.38;;;4.50;99.90;;;;;;5051794;28;20052;-73
2021/10/27 06:01:54;;;;;;;20.00;9.77;;;4.60;99.90;;;;;;5051615;28;20021;-74
2021/10/27 06:04:20;;;;;;;10.52;8.85;;;4.60;99.90;;;;;;5050967;28;20025;-69
2021/10/27 06:06:46;;;;;;;13.35;9.55;;;4.60;99.90;;;;;;5051804;28;20423;-72
2021/10/27 06:09:13;;;;;;;17.42;11.43;;;4.70;99.90;;;;;;5051419;28;20025;-72
2021/10/27 06:11:39;;;;;;;15.25;10.90;;;4.60;99.90;;;;;;5051556;28;20032;-71
2021/10/27 06:14:05;;;;;;;14.55;10.13;;;4.60;99.90;;;;;;5049117;28;20032;-70
2021/10/27 06:16:31;;;;;;;10.55;8.80;;;4.70;99.90;;;;;;5029064;28;20029;-72
2021/10/27 06:18:58;;;;;;;11.23;9.30;;;4.70;99.90;;;;;;5031589;28;20487;-71
2021/10/27 06:21:24;;;;;;;10.77;8.82;;;4.70;99.90;;;;;;5030296;28;20025;-73
2021/10/27 06:23:50;;;;;;;18.00;9.07;;;4.80;99.90;;;;;;5013906;28;20034;-71
2021/10/27 06:26:20;;;;;;;23.85;11.63;;;4.90;99.90;;;;;;5011227;28;20037;-73
2021/10/27 06:28:58;;;;;;;15.32;10.38;;;4.80;99.90;;;;;;5011768;28;20105;-72
2021/10/27 06:31:36;;;;;;;19.27;10.05;;;4.70;99.90;;;;;;5010333;28;20494;-67
2021/10/27 06:47:19;;;;;;;27.75;10.27;;;4.70;99.90;;;;;;5050622;28;20043;-70
2021/10/27 06:49:45;;;;;;;15.25;9.05;;;4.80;99.90;;;;;;5050848;28;20092;-70
2021/10/27 06:52:11;;;;;;;23.27;9.52;;;4.70;99.90;;;;;;5050843;28;20080;-68
2021/10/27 06:54:37;;;;;;;15.68;8.93;;;4.80;99.90;;;;;;5050040;28;20108;-68
2021/10/27 06:57:03;;;;;;;18.45;8.90;;;4.70;99.90;;;;;;5050684;28;20060;-68
2021/10/27 06:59:35;;;;;;;13.27;9.00;;;4.60;99.90;;;;;;5050489;28;20021;-69
2021/10/27 07:15:05;;;;;;;13.95;8.30;;;4.70;99.90;;;;;;5054237;28;20405;-69
2021/10/27 07:17:32;;;;;;;37.70;8.45;;;4.70;99.90;;;;;;5054805;28;20583;-70
2021/10/27 07:20:05;;;;;;;19.55;9.75;;;4.70;99.90;;;;;;5036205;28;20056;-69
2021/10/27 07:22:30;;;;;;;10.15;8.52;;;4.80;99.90;;;;;;5054767;28;20368;-68
2021/10/27 07:24:58;;;;;;;13.68;8.68;;;4.70;99.90;;;;;;5054201;28;20025;-69
2021/10/27 07:27:24;;;;;;;13.50;8.63;;;4.80;99.90;;;;;;5054493;28;20479;-68
2021/10/27 07:29:50;;;;;;;19.45;8.65;;;4.80;99.90;;;;;;5055260;28;20021;-69
2021/10/27 07:32:17;;;;;;;9.30;7.75;;;4.90;99.90;;;;;;5055863;28;20159;-68
2021/10/27 07:34:59;;;;;;;16.77;8.85;;;5.10;99.90;;;;;;5054212;28;20107;-68
2021/10/27 07:43:00;;;;;;;8.65;7.72;;;5.00;99.90;;;;;;5034631;28;20029;-69
2021/10/27 07:45:27;;;;;;;26.70;8.30;;;5.00;99.90;;;;;;5033857;28;20030;-68
2021/10/27 07:47:55;;;;;;;9.27;8.10;;;5.00;99.90;;;;;;5033775;28;20021;-70
2021/10/27 07:50:27;;;;;;;33.60;19.30;;;5.00;99.90;;;;;;5034724;28;20030;-68
2021/10/27 07:52:54;;;;;;;22.20;10.20;;;5.00;99.90;;;;;;5034824;28;20075;-69
2021/10/27 07:55:20;;;;;;;9.55;7.90;;;5.20;99.90;;;;;;5016140;28;20041;-68
2021/10/27 07:57:47;;;;;;;25.08;8.43;;;5.20;99.90;;;;;;5034141;28;20558;-69
2021/10/27 08:00:16;;;;;;;18.25;8.07;;;5.50;99.90;;;;;;5034348;28;20029;-69
2021/10/27 08:02:45;;;;;;;8.63;7.25;;;5.60;99.90;;;;;;5016567;28;20057;-69
2021/10/27 08:05:11;;;;;;;28.52;8.25;;;5.70;99.90;;;;;;5033990;28;20022;-70
2021/10/27 08:07:48;;;;;;;12.40;8.18;;;5.80;99.90;;;;;;5038969;28;20017;-70
2021/10/27 08:10:15;;;;;;;10.23;7.32;;;5.70;99.90;;;;;;5053552;28;20028;-69
2021/10/27 08:12:46;;;;;;;26.00;8.75;;;5.70;99.90;;;;;;5054208;28;20052;-67
2021/10/27 08:15:13;;;;;;;24.48;12.93;;;5.80;99.90;;;;;;5053725;28;20025;-68
2021/10/27 08:17:39;;;;;;;14.80;9.52;;;5.70;99.90;;;;;;5053710;28;20392;-68
2021/10/27 08:20:07;;;;;;;19.10;10.85;;;6.00;99.90;;;;;;5036080;28;20029;-68
2021/10/27 08:22:34;;;;;;;23.73;14.65;;;6.50;99.90;;;;;;5053875;28;20087;-68
2021/10/27 08:25:05;;;;;;;10.70;7.57;;;6.90;99.90;;;;;;5053410;28;20025;-68
2021/10/27 08:27:34;;;;;;;8.63;6.90;;;7.00;99.90;;;;;;5053843;28;20503;-69
2021/10/27 08:30:05;;;;;;;12.95;9.32;;;7.70;99.90;;;;;;5053619;28;20029;-68
2021/10/27 08:32:41;;;;;;;6.65;6.00;;;8.30;99.90;;;;;;5054305;28;20029;-69
2021/10/27 08:35:13;;;;;;;6.28;5.22;;;8.90;99.90;;;;;;5053857;28;20025;-70
2021/10/27 08:37:46;;;;;;;5.13;4.72;;;9.00;99.90;;;;;;5058885;28;20029;-69
2021/10/27 08:40:12;;;;;;;5.82;5.22;;;8.80;99.90;;;;;;5060161;28;20040;-68
2021/10/27 08:42:41;;;;;;;6.03;5.47;;;9.00;99.90;;;;;;5060331;28;20107;-68
2021/10/27 08:45:07;;;;;;;8.80;5.05;;;9.00;99.90;;;;;;5052848;28;20083;-68
2021/10/27 08:47:34;;;;;;;5.40;4.90;;;8.90;99.90;;;;;;5053854;28;20086;-68
2021/10/27 08:50:00;;;;;;;5.55;4.43;;;8.60;99.90;;;;;;5053678;28;20541;-69
2021/10/27 08:52:25;;;;;;;4.93;4.38;;;8.60;99.90;;;;;;5032533;28;20108;-70
2021/10/27 08:54:51;;;;;;;4.78;4.38;;;9.00;99.90;;;;;;5033154;28;20049;-68
2021/10/27 08:57:18;;;;;;;8.88;4.63;;;9.50;99.90;;;;;;5034301;28;20036;-70
2021/10/27 08:59:53;;;;;;;7.75;5.85;;;9.50;99.90;;;;;;5033818;28;20025;-67
2021/10/27 09:05:09;;;;;;;5.97;5.40;;;10.40;99.90;;;;;;5032728;28;20028;-67
2021/10/27 09:17:00;;;;;;;5.15;4.65;;;12.40;99.90;;;;;;5050612;28;20036;-70
2021/10/27 10:06:12;;;;;;;6.78;6.18;;;18.10;99.90;;;;;;5052899;28;20143;-68
2021/10/27 10:08:43;;;;;;;5.78;5.18;;;17.80;99.90;;;;;;5052487;28;20048;-67
2021/10/27 10:11:11;;;;;;;6.28;5.68;;;17.50;99.90;;;;;;5053077;28;20033;-68
2021/10/27 10:13:39;;;;;;;9.23;5.60;;;17.60;99.90;;;;;;5039259;28;20111;-69
2021/10/27 10:16:06;;;;;;;10.43;5.50;;;17.90;99.90;;;;;;4995779;28;20038;-71
2021/10/27 10:18:33;;;;;;;7.25;5.35;;;18.00;99.90;;;;;;5013738;28;20025;-71
2021/10/27 10:20:59;;;;;;;6.05;5.55;;;18.30;99.90;;;;;;5034784;28;20021;-71
2021/10/27 10:23:26;;;;;;;7.55;5.53;;;18.40;99.90;;;;;;5053749;28;20045;-72
2021/10/27 10:25:54;;;;;;;5.82;5.13;;;18.60;99.40;;;;;;5052843;28;20104;-73
2021/10/27 10:28:25;;;;;;;5.57;5.05;;;18.60;99.20;;;;;;5053302;28;20483;-72
2021/10/27 10:30:54;;;;;;;6.50;5.10;;;18.10;99.90;;;;;;5035630;28;20453;-72
2021/10/27 10:33:33;;;;;;;5.45;4.80;;;18.90;99.60;;;;;;5053979;28;20025;-70
2021/10/27 10:36:09;;;;;;;5.80;5.30;;;19.70;97.70;;;;;;5051978;28;20056;-71
2021/10/27 11:25:00;;;;;;;5.45;4.93;;;22.00;94.00;;;;;;5051590;28;20029;-67
2021/10/27 11:37:12;;;;;;;5.85;4.97;;;22.30;93.50;;;;;;5051713;28;20021;-68
2021/10/27 11:38:51;;;;;;;4.70;4.20;;;22.50;93.10;;;;;;5052862;28;20036;-67
2021/10/27 11:41:37;;;;;;;5.18;4.50;;;23.10;91.50;;;;;;5052930;28;20033;-68
2021/10/27 11:46:59;;;;;;;6.28;4.20;;;24.00;90.70;;;;;;5050964;28;20052;-68
2021/10/27 11:49:35;;;;;;;3.70;3.40;;;23.50;90.50;;;;;;5051677;28;20032;-66
2021/10/27 11:52:02;;;;;;;6.03;3.72;;;23.70;91.00;;;;;;5052567;28;20040;-68
2021/10/27 11:54:30;;;;;;;4.13;3.35;;;23.80;90.60;;;;;;5054349;28;20836;-67
2021/10/27 11:56:56;;;;;;;5.15;3.20;;;24.10;89.10;;;;;;5054720;28;20059;-63
2021/10/27 11:59:22;;;;;;;8.32;3.53;;;24.20;88.40;;;;;;5053724;28;20083;-68
2021/10/27 12:01:52;;;;;;;3.50;3.20;;;24.40;87.90;;;;;;5053700;28;20117;-68
2021/10/27 12:04:19;;;;;;;4.00;3.05;;;25.00;88.50;;;;;;5052841;28;20025;-68
2021/10/27 12:06:55;;;;;;;4.32;2.83;;;25.00;85.40;;;;;;5053277;28;20021;-68
2021/10/27 12:17:59;;;;;;;4.65;2.70;;;24.40;85.60;;;;;;5053646;28;20100;-68
2021/10/27 12:20:52;;;;;;;4.30;2.70;;;24.70;84.50;;;;;;5052942;28;20122;-72
2021/10/27 12:23:20;;;;;;;6.10;2.50;;;25.00;83.50;;;;;;5053210;28;20037;-72
2021/10/27 12:25:46;;;;;;;3.15;2.40;;;24.90;83.60;;;;;;5052612;28;20471;-71
2021/10/27 12:28:32;;;;;;;6.20;2.17;;;25.20;83.80;;;;;;5053246;28;20025;-71
2021/10/27 12:31:18;;;;;;;3.67;2.47;;;25.50;82.30;;;;;;5053132;28;20024;-72
2021/10/27 12:33:46;;;;;;;4.60;2.75;;;25.40;82.10;;;;;;5035139;28;20028;-71
2021/10/27 12:36:26;;;;;;;5.95;2.92;;;24.90;82.10;;;;;;5052383;28;20104;-72
2021/10/27 12:39:15;;;;;;;3.08;2.72;;;25.20;82.60;;;;;;5052932;28;20021;-73
2021/10/27 12:41:44;;;;;;;7.35;2.75;;;25.70;81.00;;;;;;5052924;28;20104;-72
2021/10/27 12:44:22;;;;;;;3.47;2.75;;;25.10;80.90;;;;;;5052970;28;20029;-72
2021/10/27 12:47:03;;;;;;;3.58;2.75;;;25.70;80.80;;;;;;5052403;28;20123;-70
2021/10/27 12:49:29;;;;;;;5.07;2.75;;;26.00;79.10;;;;;;5052825;28;20078;-71
2021/10/27 12:51:54;;;;;;;3.08;2.08;;;26.00;79.40;;;;;;5052715;28;20104;-72
2021/10/27 12:54:28;;;;;;;3.25;2.05;;;25.70;79.10;;;;;;5052514;28;20379;-72
2021/10/27 12:57:05;;;;;;;4.90;2.50;;;26.20;78.80;;;;;;5052788;28;20025;-70
2021/10/27 12:59:33;;;;;;;3.33;2.25;;;25.90;77.50;;;;;;5052381;28;20526;-71
2021/10/27 13:02:26;;;;;;;4.07;2.42;;;25.80;79.70;;;;;;5052444;28;20647;-71
2021/10/27 13:07:21;;;;;;;2.85;1.90;;;25.90;78.90;;;;;;5034690;28;20061;-69
2021/10/27 13:31:16;;;;;;;2.50;2.00;;;26.10;78.90;;;;;;5032531;28;20121;-69
2021/10/27 13:33:42;;;;;;;3.42;2.30;;;25.80;77.90;;;;;;5015227;28;20111;-66
2021/10/27 13:36:08;;;;;;;2.90;2.05;;;25.80;76.90;;;;;;5009204;28;20049;-71
2021/10/27 13:38:37;;;;;;;3.78;2.30;;;25.90;78.20;;;;;;5024531;28;20053;-73
2021/10/27 13:41:06;;;;;;;4.57;2.00;;;26.00;77.60;;;;;;5030460;28;20021;-72
2021/10/27 14:08:01;;;;;;;4.53;2.50;;;26.70;76.00;;;;;;5050453;28;20163;-74
2021/10/27 14:10:47;;;;;;;2.60;2.40;;;26.10;78.60;;;;;;5034272;28;20104;-74
2021/10/27 14:40:45;;;;;;;3.00;2.63;;;24.90;79.70;;;;;;5050912;28;20044;-75
2021/10/27 15:20:55;;;;;;;4.60;3.67;;;19.10;94.80;;;;;;5050144;28;20414;-77
2021/10/27 15:23:32;;;;;;;4.50;3.30;;;18.80;94.90;;;;;;5051326;28;20085;-79
2021/10/27 15:31:18;;;;;;;3.35;3.05;;;18.00;96.40;;;;;;5048508;28;20016;-77
2021/10/27 15:34:20;;;;;;;4.75;2.85;;;17.60;97.10;;;;;;5029795;28;20031;-78
2021/10/27 15:51:00;;;;;;;4.70;2.95;;;16.80;99.00;;;;;;5029727;28;20084;-72
2021/10/27 15:53:26;;;;;;;5.03;3.40;;;16.50;99.90;;;;;;5035592;28;20498;-73
2021/10/27 15:55:52;;;;;;;5.57;3.55;;;16.30;99.90;;;;;;5058066;28;20021;-76
2021/10/27 15:58:18;;;;;;;5.88;2.75;;;16.20;99.90;;;;;;5035586;28;20030;-73
2021/10/27 16:00:45;;;;;;;7.07;2.78;;;16.00;99.90;;;;;;5036659;28;20490;-73
2021/10/27 16:03:12;;;;;;;9.73;3.35;;;15.70;99.90;;;;;;5047814;28;20048;-73
2021/10/27 16:05:39;;;;;;;4.45;2.92;;;15.40;99.90;;;;;;5042781;28;20041;-73
2021/10/27 16:08:11;;;;;;;4.65;2.70;;;15.20;99.90;;;;;;5059978;28;20040;-74
2021/10/27 16:10:37;;;;;;;5.75;2.80;;;15.10;99.90;;;;;;5056244;28;20021;-73
2021/10/27 16:13:04;;;;;;;3.85;2.60;;;14.70;99.90;;;;;;5054681;28;20039;-72
2021/10/27 16:15:41;;;;;;;4.07;2.50;;;14.50;99.90;;;;;;5054163;28;20029;-72
2021/10/27 16:18:11;;;;;;;3.85;2.72;;;14.40;99.90;;;;;;5045798;28;20020;-73
2021/10/27 16:20:39;;;;;;;3.95;2.85;;;14.20;99.90;;;;;;5060568;28;20395;-72
2021/10/27 16:23:06;;;;;;;4.35;2.70;;;14.10;99.90;;;;;;5074326;28;20228;-71
2021/10/27 16:25:32;;;;;;;4.32;2.67;;;13.90;99.90;;;;;;5073756;28;20025;-72
2021/10/27 16:27:58;;;;;;;7.32;3.60;;;13.70;99.90;;;;;;5078850;28;20020;-72
2021/10/27 16:30:25;;;;;;;3.97;2.80;;;13.50;99.90;;;;;;5077588;28;20471;-72
2021/10/27 16:32:51;;;;;;;7.30;2.95;;;13.40;99.90;;;;;;5078093;28;20027;-69
2021/10/27 16:36:19;;;;;;;7.18;3.35;;;13.30;99.90;;;;;;5074309;28;20029;-78
2021/10/27 16:38:45;;;;;;;4.63;2.97;;;13.10;99.90;;;;;;4990886;28;20053;-77
2021/10/27 16:41:10;;;;;;;5.35;3.05;;;13.00;99.90;;;;;;5044108;28;20040;-77
2021/10/27 16:43:36;;;;;;;7.45;3.10;;;12.90;99.90;;;;;;5056581;28;20410;-77
2021/10/27 16:46:02;;;;;;;3.95;2.90;;;12.80;99.90;;;;;;5042369;28;20078;-78
2021/10/27 16:48:28;;;;;;;5.90;3.90;;;12.60;99.90;;;;;;5042473;28;20028;-77
2021/10/27 16:50:56;;;;;;;7.05;3.28;;;12.60;99.90;;;;;;5045778;28;20013;-76
2021/10/27 16:53:24;;;;;;;7.72;4.13;;;12.40;99.90;;;;;;5046582;28;20067;-77
2021/10/27 16:55:50;;;;;;;3.92;3.33;;;12.40;99.90;;;;;;5026970;28;21361;-76
2021/10/27 16:58:16;;;;;;;7.35;3.60;;;12.30;99.90;;;;;;5046389;28;20044;-77
2021/10/27 17:00:42;;;;;;;6.35;3.72;;;12.20;99.90;;;;;;5045385;28;20041;-78
2021/10/27 17:03:08;;;;;;;6.15;3.88;;;12.20;99.90;;;;;;5046078;28;20112;-77
2021/10/27 17:05:34;;;;;;;6.07;3.90;;;12.00;99.90;;;;;;5045147;28;20101;-78
2021/10/27 17:08:00;;;;;;;5.95;4.07;;;12.00;99.90;;;;;;5043940;28;20024;-78
2021/10/27 17:10:26;;;;;;;11.63;4.35;;;11.90;99.90;;;;;;5041283;28;20022;-76
2021/10/27 17:12:51;;;;;;;5.60;5.05;;;11.80;99.90;;;;;;5041857;28;20356;-78
2021/10/27 17:15:18;;;;;;;4.70;4.20;;;11.60;99.90;;;;;;5040886;28;20105;-77
2021/10/27 17:17:44;;;;;;;9.07;4.85;;;11.50;99.90;;;;;;5041382;28;20490;-77
2021/10/27 17:20:15;;;;;;;8.52;5.68;;;11.30;99.90;;;;;;5043623;28;20109;-78
2021/10/27 17:22:45;;;;;;;8.70;5.50;;;11.20;99.90;;;;;;5041599;28;20083;-78
2021/10/27 17:25:13;;;;;;;7.70;5.60;;;11.10;99.90;;;;;;5041144;28;20155;-78
2021/10/27 17:27:40;;;;;;;12.18;6.78;;;11.10;99.90;;;;;;5043294;28;20025;-78
2021/10/27 17:30:11;;;;;;;11.13;6.68;;;11.10;99.90;;;;;;5045211;28;20548;-79
2021/10/27 17:32:39;;;;;;;12.63;7.30;;;11.00;99.90;;;;;;5032390;28;20028;-79
2021/10/27 17:35:14;;;;;;;12.68;6.85;;;10.80;99.90;;;;;;5050188;28;20031;-79
2021/10/27 17:37:44;;;;;;;13.02;7.78;;;10.80;99.90;;;;;;5050740;28;20092;-79
2021/10/27 17:40:16;;;;;;;10.73;7.57;;;10.70;99.90;;;;;;5048803;28;20025;-79